sensor_id;sensor_type;location;lat;lon;timestamp;P1;durP1;ratioP1;P2;durP2;ratioP2
50683;SDS011;36654;45.042;38.994;2023-05-10T00:01:11;10.32;;;6.60;;
50683;SDS011;36654;45.042;38.994;2023-05-10T00:03:36;14.85;;;7.70;;
50683;SDS011;36654;45.042;38.994;2023-05-10T00:06:02;10.85;;;7.03;;
50683;SDS011;36654;45.042;38.994;2023-05-10T00:08:28;9.50;;;6.10;;
50683;SDS011;36654;45.042;38.994;2023-05-10T00:10:53;10.30;;;6.80;;
50683;SDS011;36654;45.042;38.994;2023-05-10T00:13:19;9.75;;;5.85;;
50683;SDS011;36654;45.042;38.994;2023-05-10T00:15:45;10.10;;;6.40;;
50683;SDS011;36654;45.042;38.994;2023-05-10T00:18:10;8.15;;;5.88;;
50683;SDS011;36654;45.042;38.994;2023-05-10T00:20:36;8.20;;;5.72;;
50683;SDS011;36654;45.042;38.994;2023-05-10T00:23:02;9.77;;;5.45;;
50683;SDS011;36654;45.042;38.994;2023-05-10T00:25:27;7.85;;;5.43;;
50683;SDS011;36654;45.042;38.994;2023-05-10T00:27:53;7.03;;;5.30;;
50683;SDS011;36654;45.042;38.994;2023-05-10T00:30:20;7.53;;;4.30;;
50683;SDS011;36654;45.042;38.994;2023-05-10T00:32:46;7.82;;;4.57;;
50683;SDS011;36654;45.042;38.994;2023-05-10T00:35:13;9.32;;;5.05;;
50683;SDS011;36654;45.042;38.994;2023-05-10T00:37:38;5.57;;;4.32;;
50683;SDS011;36654;45.042;38.994;2023-05-10T00:40:05;6.40;;;3.80;;
50683;SDS011;36654;45.042;38.994;2023-05-10T00:42:31;8.55;;;4.43;;
50683;SDS011;36654;45.042;38.994;2023-05-10T00:44:57;8.82;;;3.90;;
50683;SDS011;36654;45.042;38.994;2023-05-10T00:47:23;5.78;;;4.43;;
50683;SDS011;36654;45.042;38.994;2023-05-10T00:49:49;5.93;;;4.38;;
50683;SDS011;36654;45.042;38.994;2023-05-10T00:52:15;5.10;;;4.32;;
50683;SDS011;36654;45.042;38.994;2023-05-10T00:54:40;5.78;;;4.78;;
50683;SDS011;36654;45.042;38.994;2023-05-10T00:57:06;6.78;;;4.93;;
50683;SDS011;36654;45.042;38.994;2023-05-10T00:59:32;4.68;;;3.78;;
50683;SDS011;36654;45.042;38.994;2023-05-10T01:01:58;7.72;;;3.85;;
50683;SDS011;36654;45.042;38.994;2023-05-10T01:04:24;4.50;;;3.33;;
50683;SDS011;36654;45.042;38.994;2023-05-10T01:06:53;5.90;;;4.28;;
50683;SDS011;36654;45.042;38.994;2023-05-10T01:09:20;6.32;;;4.57;;
50683;SDS011;36654;45.042;38.994;2023-05-10T01:11:46;5.50;;;4.35;;
50683;SDS011;36654;45.042;38.994;2023-05-10T01:14:13;7.82;;;4.90;;
50683;SDS011;36654;45.042;38.994;2023-05-10T01:16:41;6.43;;;4.95;;
50683;SDS011;36654;45.042;38.994;2023-05-10T01:19:28;6.28;;;4.13;;
50683;SDS011;36654;45.042;38.994;2023-05-10T01:22:02;4.78;;;3.58;;
50683;SDS011;36654;45.042;38.994;2023-05-10T01:24:40;5.05;;;4.05;;
50683;SDS011;36654;45.042;38.994;2023-05-10T01:30:01;4.35;;;3.40;;
50683;SDS011;36654;45.042;38.994;2023-05-10T01:32:43;5.45;;;3.47;;
50683;SDS011;36654;45.042;38.994;2023-05-10T01:35:25;4.78;;;3.75;;
50683;SDS011;36654;45.042;38.994;2023-05-10T01:38:03;3.53;;;3.17;;
50683;SDS011;36654;45.042;38.994;2023-05-10T01:46:28;4.32;;;3.10;;
50683;SDS011;36654;45.042;38.994;2023-05-10T01:49:08;4.13;;;3.70;;
50683;SDS011;36654;45.042;38.994;2023-05-10T01:51:49;5.00;;;3.90;;
50683;SDS011;36654;45.042;38.994;2023-05-10T01:54:17;4.85;;;3.50;;
50683;SDS011;36654;45.042;38.994;2023-05-10T01:56:46;4.82;;;4.15;;
50683;SDS011;36654;45.042;38.994;2023-05-10T01:59:17;4.15;;;3.75;;
50683;SDS011;36654;45.042;38.994;2023-05-10T02:04:10;4.28;;;3.72;;
50683;SDS011;36654;45.042;38.994;2023-05-10T02:06:40;4.63;;;3.88;;
50683;SDS011;36654;45.042;38.994;2023-05-10T02:09:07;5.30;;;3.33;;
50683;SDS011;36654;45.042;38.994;2023-05-10T02:11:37;6.00;;;4.20;;
50683;SDS011;36654;45.042;38.994;2023-05-10T02:14:05;4.72;;;3.92;;
50683;SDS011;36654;45.042;38.994;2023-05-10T02:16:33;6.50;;;3.17;;
50683;SDS011;36654;45.042;38.994;2023-05-10T02:19:01;5.20;;;4.15;;
50683;SDS011;36654;45.042;38.994;2023-05-10T02:21:28;6.38;;;4.47;;
50683;SDS011;36654;45.042;38.994;2023-05-10T02:23:56;5.03;;;4.03;;
50683;SDS011;36654;45.042;38.994;2023-05-10T02:26:23;6.15;;;4.03;;
50683;SDS011;36654;45.042;38.994;2023-05-10T02:28:50;5.68;;;4.60;;
50683;SDS011;36654;45.042;38.994;2023-05-10T02:31:17;7.80;;;4.40;;
50683;SDS011;36654;45.042;38.994;2023-05-10T02:33:44;5.20;;;4.32;;
50683;SDS011;36654;45.042;38.994;2023-05-10T02:36:12;5.70;;;4.45;;
50683;SDS011;36654;45.042;38.994;2023-05-10T02:38:38;5.03;;;4.18;;
50683;SDS011;36654;45.042;38.994;2023-05-10T02:41:05;4.43;;;3.97;;
50683;SDS011;36654;45.042;38.994;2023-05-10T02:43:35;5.20;;;4.15;;
50683;SDS011;36654;45.042;38.994;2023-05-10T02:46:03;4.03;;;3.63;;
50683;SDS011;36654;45.042;38.994;2023-05-10T02:48:28;4.57;;;3.60;;
50683;SDS011;36654;45.042;38.994;2023-05-10T02:50:56;3.85;;;3.50;;
50683;SDS011;36654;45.042;38.994;2023-05-10T02:53:33;3.72;;;3.42;;
50683;SDS011;36654;45.042;38.994;2023-05-10T02:56:01;5.10;;;3.67;;
50683;SDS011;36654;45.042;38.994;2023-05-10T02:58:32;4.30;;;3.40;;
50683;SDS011;36654;45.042;38.994;2023-05-10T03:00:58;3.47;;;3.17;;
50683;SDS011;36654;45.042;38.994;2023-05-10T03:03:24;5.40;;;3.53;;
50683;SDS011;36654;45.042;38.994;2023-05-10T03:05:50;3.33;;;3.03;;
50683;SDS011;36654;45.042;38.994;2023-05-10T03:08:15;4.60;;;3.72;;
50683;SDS011;36654;45.042;38.994;2023-05-10T03:10:45;5.95;;;4.03;;
50683;SDS011;36654;45.042;38.994;2023-05-10T03:16:14;4.65;;;3.63;;
50683;SDS011;36654;45.042;38.994;2023-05-10T03:18:54;4.05;;;3.50;;
50683;SDS011;36654;45.042;38.994;2023-05-10T03:21:32;4.82;;;3.97;;
50683;SDS011;36654;45.042;38.994;2023-05-10T03:24:04;5.63;;;4.03;;
50683;SDS011;36654;45.042;38.994;2023-05-10T03:26:32;5.75;;;4.35;;
50683;SDS011;36654;45.042;38.994;2023-05-10T03:28:58;8.20;;;4.18;;
50683;SDS011;36654;45.042;38.994;2023-05-10T03:31:25;3.60;;;3.30;;
50683;SDS011;36654;45.042;38.994;2023-05-10T03:33:52;5.55;;;3.17;;
50683;SDS011;36654;45.042;38.994;2023-05-10T03:36:18;4.22;;;3.13;;
50683;SDS011;36654;45.042;38.994;2023-05-10T03:38:44;6.45;;;3.55;;
50683;SDS011;36654;45.042;38.994;2023-05-10T03:41:10;7.10;;;3.80;;
50683;SDS011;36654;45.042;38.994;2023-05-10T03:43:36;4.55;;;3.10;;
50683;SDS011;36654;45.042;38.994;2023-05-10T03:46:04;4.53;;;3.63;;
50683;SDS011;36654;45.042;38.994;2023-05-10T03:48:34;3.70;;;3.28;;
50683;SDS011;36654;45.042;38.994;2023-05-10T03:50:59;2.10;;;1.90;;
50683;SDS011;36654;45.042;38.994;2023-05-10T03:53:25;2.35;;;2.15;;
50683;SDS011;36654;45.042;38.994;2023-05-10T03:55:51;2.20;;;2.10;;
50683;SDS011;36654;45.042;38.994;2023-05-10T03:58:17;1.90;;;1.80;;
50683;SDS011;36654;45.042;38.994;2023-05-10T04:00:43;2.13;;;1.90;;
50683;SDS011;36654;45.042;38.994;2023-05-10T04:03:13;2.38;;;2.17;;
50683;SDS011;36654;45.042;38.994;2023-05-10T04:05:39;3.17;;;2.00;;
50683;SDS011;36654;45.042;38.994;2023-05-10T04:08:05;3.85;;;2.15;;
50683;SDS011;36654;45.042;38.994;2023-05-10T04:10:31;1.83;;;1.73;;
50683;SDS011;36654;45.042;38.994;2023-05-10T04:12:57;3.13;;;1.83;;
50683;SDS011;36654;45.042;38.994;2023-05-10T04:15:23;1.73;;;1.63;;
50683;SDS011;36654;45.042;38.994;2023-05-10T04:17:49;1.80;;;1.70;;
50683;SDS011;36654;45.042;38.994;2023-05-10T04:20:15;1.50;;;1.40;;
50683;SDS011;36654;45.042;38.994;2023-05-10T04:22:41;1.80;;;1.70;;
50683;SDS011;36654;45.042;38.994;2023-05-10T04:25:06;1.85;;;1.75;;
50683;SDS011;36654;45.042;38.994;2023-05-10T04:27:33;4.63;;;2.85;;
50683;SDS011;36654;45.042;38.994;2023-05-10T04:29:58;2.85;;;1.60;;
50683;SDS011;36654;45.042;38.994;2023-05-10T04:32:24;2.17;;;1.83;;
50683;SDS011;36654;45.042;38.994;2023-05-10T04:34:50;2.25;;;1.58;;
50683;SDS011;36654;45.042;38.994;2023-05-10T04:37:16;1.88;;;1.77;;
50683;SDS011;36654;45.042;38.994;2023-05-10T04:39:42;1.42;;;1.33;;
50683;SDS011;36654;45.042;38.994;2023-05-10T04:42:08;2.10;;;2.00;;
50683;SDS011;36654;45.042;38.994;2023-05-10T04:44:34;2.42;;;1.83;;
50683;SDS011;36654;45.042;38.994;2023-05-10T04:47:00;1.85;;;1.75;;
50683;SDS011;36654;45.042;38.994;2023-05-10T04:49:27;3.22;;;2.20;;
50683;SDS011;36654;45.042;38.994;2023-05-10T04:51:53;2.92;;;2.08;;
50683;SDS011;36654;45.042;38.994;2023-05-10T04:54:19;2.55;;;1.88;;
50683;SDS011;36654;45.042;38.994;2023-05-10T04:56:44;2.83;;;2.60;;
50683;SDS011;36654;45.042;38.994;2023-05-10T04:59:10;2.47;;;2.20;;
50683;SDS011;36654;45.042;38.994;2023-05-10T05:01:36;2.00;;;1.90;;
50683;SDS011;36654;45.042;38.994;2023-05-10T05:04:01;2.50;;;2.30;;
50683;SDS011;36654;45.042;38.994;2023-05-10T05:06:27;2.53;;;2.33;;
50683;SDS011;36654;45.042;38.994;2023-05-10T05:08:53;3.40;;;2.47;;
50683;SDS011;36654;45.042;38.994;2023-05-10T05:11:18;4.38;;;2.40;;
50683;SDS011;36654;45.042;38.994;2023-05-10T05:13:44;3.78;;;2.97;;
50683;SDS011;36654;45.042;38.994;2023-05-10T05:16:10;3.60;;;3.05;;
50683;SDS011;36654;45.042;38.994;2023-05-10T05:18:38;4.07;;;3.28;;
50683;SDS011;36654;45.042;38.994;2023-05-10T05:21:13;5.05;;;3.22;;
50683;SDS011;36654;45.042;38.994;2023-05-10T05:23:42;4.47;;;3.33;;
50683;SDS011;36654;45.042;38.994;2023-05-10T05:26:07;4.20;;;3.13;;
50683;SDS011;36654;45.042;38.994;2023-05-10T05:28:33;3.83;;;3.00;;
50683;SDS011;36654;45.042;38.994;2023-05-10T05:31:02;5.28;;;3.50;;
50683;SDS011;36654;45.042;38.994;2023-05-10T05:33:32;3.08;;;2.75;;
50683;SDS011;36654;45.042;38.994;2023-05-10T05:36:00;4.07;;;3.15;;
50683;SDS011;36654;45.042;38.994;2023-05-10T05:38:26;6.97;;;3.53;;
50683;SDS011;36654;45.042;38.994;2023-05-10T05:40:52;5.20;;;3.60;;
50683;SDS011;36654;45.042;38.994;2023-05-10T05:43:18;4.50;;;3.60;;
50683;SDS011;36654;45.042;38.994;2023-05-10T05:45:43;5.90;;;3.75;;
50683;SDS011;36654;45.042;38.994;2023-05-10T05:48:09;4.13;;;3.60;;
50683;SDS011;36654;45.042;38.994;2023-05-10T05:50:34;4.28;;;3.45;;
50683;SDS011;36654;45.042;38.994;2023-05-10T05:53:00;3.20;;;2.90;;
50683;SDS011;36654;45.042;38.994;2023-05-10T05:55:26;5.28;;;3.42;;
50683;SDS011;36654;45.042;38.994;2023-05-10T05:57:51;4.93;;;4.28;;
50683;SDS011;36654;45.042;38.994;2023-05-10T06:00:17;6.68;;;3.92;;
50683;SDS011;36654;45.042;38.994;2023-05-10T06:02:43;6.30;;;4.35;;
50683;SDS011;36654;45.042;38.994;2023-05-10T06:05:08;6.50;;;4.38;;
50683;SDS011;36654;45.042;38.994;2023-05-10T06:07:34;6.10;;;4.63;;
50683;SDS011;36654;45.042;38.994;2023-05-10T06:09:59;8.38;;;3.70;;
50683;SDS011;36654;45.042;38.994;2023-05-10T06:12:25;8.70;;;5.30;;
50683;SDS011;36654;45.042;38.994;2023-05-10T06:14:51;9.52;;;5.20;;
50683;SDS011;36654;45.042;38.994;2023-05-10T06:17:16;5.40;;;4.00;;
50683;SDS011;36654;45.042;38.994;2023-05-10T06:19:42;6.55;;;4.25;;
50683;SDS011;36654;45.042;38.994;2023-05-10T06:22:07;4.65;;;3.67;;
50683;SDS011;36654;45.042;38.994;2023-05-10T06:24:33;6.53;;;4.13;;
50683;SDS011;36654;45.042;38.994;2023-05-10T06:26:58;4.78;;;3.88;;
50683;SDS011;36654;45.042;38.994;2023-05-10T06:29:25;5.57;;;4.07;;
50683;SDS011;36654;45.042;38.994;2023-05-10T06:31:51;8.45;;;5.20;;
50683;SDS011;36654;45.042;38.994;2023-05-10T06:34:17;10.13;;;5.95;;
50683;SDS011;36654;45.042;38.994;2023-05-10T06:36:42;8.48;;;5.15;;
50683;SDS011;36654;45.042;38.994;2023-05-10T06:39:08;8.85;;;4.63;;
50683;SDS011;36654;45.042;38.994;2023-05-10T06:41:33;7.47;;;4.05;;
50683;SDS011;36654;45.042;38.994;2023-05-10T06:43:59;7.15;;;4.65;;
50683;SDS011;36654;45.042;38.994;2023-05-10T06:46:24;5.45;;;4.53;;
50683;SDS011;36654;45.042;38.994;2023-05-10T06:48:50;5.82;;;3.60;;
50683;SDS011;36654;45.042;38.994;2023-05-10T06:51:16;7.40;;;5.60;;
50683;SDS011;36654;45.042;38.994;2023-05-10T06:53:43;4.75;;;4.20;;
50683;SDS011;36654;45.042;38.994;2023-05-10T06:56:08;4.63;;;3.60;;
50683;SDS011;36654;45.042;38.994;2023-05-10T06:58:34;4.22;;;3.53;;
50683;SDS011;36654;45.042;38.994;2023-05-10T07:01:03;8.00;;;4.55;;
50683;SDS011;36654;45.042;38.994;2023-05-10T07:03:30;4.18;;;2.40;;
50683;SDS011;36654;45.042;38.994;2023-05-10T07:06:02;3.78;;;3.33;;
50683;SDS011;36654;45.042;38.994;2023-05-10T07:08:29;4.57;;;3.05;;
50683;SDS011;36654;45.042;38.994;2023-05-10T07:11:04;7.20;;;3.60;;
50683;SDS011;36654;45.042;38.994;2023-05-10T07:13:35;13.93;;;7.45;;
50683;SDS011;36654;45.042;38.994;2023-05-10T07:16:01;9.02;;;4.97;;
50683;SDS011;36654;45.042;38.994;2023-05-10T07:18:28;5.00;;;3.53;;
50683;SDS011;36654;45.042;38.994;2023-05-10T07:20:53;4.25;;;3.10;;
50683;SDS011;36654;45.042;38.994;2023-05-10T07:23:20;3.45;;;3.15;;
50683;SDS011;36654;45.042;38.994;2023-05-10T07:25:46;3.97;;;2.38;;
50683;SDS011;36654;45.042;38.994;2023-05-10T07:28:13;2.88;;;2.55;;
50683;SDS011;36654;45.042;38.994;2023-05-10T07:30:39;2.70;;;2.40;;
50683;SDS011;36654;45.042;38.994;2023-05-10T07:33:05;3.53;;;2.75;;
50683;SDS011;36654;45.042;38.994;2023-05-10T07:35:30;2.50;;;2.30;;
50683;SDS011;36654;45.042;38.994;2023-05-10T07:37:56;2.75;;;2.55;;
50683;SDS011;36654;45.042;38.994;2023-05-10T07:40:21;6.13;;;3.20;;
50683;SDS011;36654;45.042;38.994;2023-05-10T07:42:47;3.15;;;2.70;;
50683;SDS011;36654;45.042;38.994;2023-05-10T07:45:12;12.13;;;5.10;;
50683;SDS011;36654;45.042;38.994;2023-05-10T07:47:38;3.47;;;2.60;;
50683;SDS011;36654;45.042;38.994;2023-05-10T07:50:04;9.88;;;4.13;;
50683;SDS011;36654;45.042;38.994;2023-05-10T07:52:30;5.05;;;2.65;;
50683;SDS011;36654;45.042;38.994;2023-05-10T07:54:56;3.40;;;3.10;;
50683;SDS011;36654;45.042;38.994;2023-05-10T07:57:22;3.10;;;2.85;;
50683;SDS011;36654;45.042;38.994;2023-05-10T07:59:47;5.38;;;2.90;;
50683;SDS011;36654;45.042;38.994;2023-05-10T08:02:13;4.22;;;3.08;;
50683;SDS011;36654;45.042;38.994;2023-05-10T08:04:39;3.45;;;2.08;;
50683;SDS011;36654;45.042;38.994;2023-05-10T08:07:04;4.75;;;3.20;;
50683;SDS011;36654;45.042;38.994;2023-05-10T08:09:30;4.70;;;2.95;;
50683;SDS011;36654;45.042;38.994;2023-05-10T08:11:55;5.47;;;3.67;;
50683;SDS011;36654;45.042;38.994;2023-05-10T08:14:21;4.15;;;3.25;;
50683;SDS011;36654;45.042;38.994;2023-05-10T08:16:47;7.32;;;4.25;;
50683;SDS011;36654;45.042;38.994;2023-05-10T08:19:12;6.53;;;3.28;;
50683;SDS011;36654;45.042;38.994;2023-05-10T08:21:38;3.90;;;3.03;;
50683;SDS011;36654;45.042;38.994;2023-05-10T08:24:05;4.78;;;2.70;;
50683;SDS011;36654;45.042;38.994;2023-05-10T08:26:32;4.97;;;3.00;;
50683;SDS011;36654;45.042;38.994;2023-05-10T08:28:57;6.65;;;2.63;;
50683;SDS011;36654;45.042;38.994;2023-05-10T08:31:23;6.70;;;3.67;;
50683;SDS011;36654;45.042;38.994;2023-05-10T08:33:49;8.18;;;4.57;;
50683;SDS011;36654;45.042;38.994;2023-05-10T08:36:16;11.25;;;3.95;;
50683;SDS011;36654;45.042;38.994;2023-05-10T08:38:46;4.85;;;2.95;;
50683;SDS011;36654;45.042;38.994;2023-05-10T08:41:13;7.57;;;3.05;;
50683;SDS011;36654;45.042;38.994;2023-05-10T08:43:38;3.28;;;2.42;;
50683;SDS011;36654;45.042;38.994;2023-05-10T08:46:06;3.17;;;2.53;;
50683;SDS011;36654;45.042;38.994;2023-05-10T08:48:34;2.38;;;2.17;;
50683;SDS011;36654;45.042;38.994;2023-05-10T08:51:00;3.95;;;2.95;;
50683;SDS011;36654;45.042;38.994;2023-05-10T08:53:28;5.75;;;2.78;;
50683;SDS011;36654;45.042;38.994;2023-05-10T08:55:58;12.82;;;6.40;;
50683;SDS011;36654;45.042;38.994;2023-05-10T08:58:23;6.80;;;3.80;;
50683;SDS011;36654;45.042;38.994;2023-05-10T09:00:50;6.55;;;4.68;;
50683;SDS011;36654;45.042;38.994;2023-05-10T09:03:18;6.97;;;2.88;;
50683;SDS011;36654;45.042;38.994;2023-05-10T09:05:44;3.35;;;2.58;;
50683;SDS011;36654;45.042;38.994;2023-05-10T09:08:10;9.73;;;3.33;;
50683;SDS011;36654;45.042;38.994;2023-05-10T09:10:38;5.22;;;2.25;;
50683;SDS011;36654;45.042;38.994;2023-05-10T09:13:05;3.85;;;2.40;;
50683;SDS011;36654;45.042;38.994;2023-05-10T09:15:31;3.67;;;2.30;;
50683;SDS011;36654;45.042;38.994;2023-05-10T09:17:57;7.15;;;2.78;;
50683;SDS011;36654;45.042;38.994;2023-05-10T09:20:24;2.03;;;1.67;;
50683;SDS011;36654;45.042;38.994;2023-05-10T09:22:49;3.10;;;2.15;;
50683;SDS011;36654;45.042;38.994;2023-05-10T09:25:16;3.53;;;2.70;;
50683;SDS011;36654;45.042;38.994;2023-05-10T09:27:45;3.22;;;1.90;;
50683;SDS011;36654;45.042;38.994;2023-05-10T09:30:15;1.83;;;1.70;;
50683;SDS011;36654;45.042;38.994;2023-05-10T09:32:44;3.63;;;2.10;;
50683;SDS011;36654;45.042;38.994;2023-05-10T09:35:14;2.47;;;1.75;;
50683;SDS011;36654;45.042;38.994;2023-05-10T09:37:45;3.42;;;2.20;;
50683;SDS011;36654;45.042;38.994;2023-05-10T09:40:13;2.50;;;2.30;;
50683;SDS011;36654;45.042;38.994;2023-05-10T09:42:51;2.70;;;2.30;;
50683;SDS011;36654;45.042;38.994;2023-05-10T09:45:19;2.88;;;2.60;;
50683;SDS011;36654;45.042;38.994;2023-05-10T09:47:46;3.60;;;2.35;;
50683;SDS011;36654;45.042;38.994;2023-05-10T09:50:12;2.10;;;2.00;;
50683;SDS011;36654;45.042;38.994;2023-05-10T09:55:26;3.40;;;3.10;;
50683;SDS011;36654;45.042;38.994;2023-05-10T09:58:07;2.92;;;2.40;;
50683;SDS011;36654;45.042;38.994;2023-05-10T10:00:44;4.82;;;2.78;;
50683;SDS011;36654;45.042;38.994;2023-05-10T10:03:13;4.78;;;2.60;;
50683;SDS011;36654;45.042;38.994;2023-05-10T10:05:40;2.72;;;2.25;;
50683;SDS011;36654;45.042;38.994;2023-05-10T10:08:11;3.67;;;2.50;;
50683;SDS011;36654;45.042;38.994;2023-05-10T10:10:38;3.28;;;2.65;;
50683;SDS011;36654;45.042;38.994;2023-05-10T10:13:09;6.38;;;2.45;;
50683;SDS011;36654;45.042;38.994;2023-05-10T10:15:35;6.72;;;2.60;;
50683;SDS011;36654;45.042;38.994;2023-05-10T10:18:00;5.25;;;2.22;;
50683;SDS011;36654;45.042;38.994;2023-05-10T10:20:28;14.10;;;5.95;;
50683;SDS011;36654;45.042;38.994;2023-05-10T10:22:54;4.72;;;2.67;;
50683;SDS011;36654;45.042;38.994;2023-05-10T10:25:20;6.43;;;3.00;;
50683;SDS011;36654;45.042;38.994;2023-05-10T10:35:42;4.55;;;2.70;;
50683;SDS011;36654;45.042;38.994;2023-05-10T10:38:10;3.83;;;2.30;;
50683;SDS011;36654;45.042;38.994;2023-05-10T10:40:38;4.53;;;2.63;;
50683;SDS011;36654;45.042;38.994;2023-05-10T10:46:11;4.00;;;2.83;;
50683;SDS011;36654;45.042;38.994;2023-05-10T10:48:49;16.80;;;9.75;;
50683;SDS011;36654;45.042;38.994;2023-05-10T10:51:36;3.33;;;2.97;;
50683;SDS011;36654;45.042;38.994;2023-05-10T10:54:11;6.65;;;2.30;;
50683;SDS011;36654;45.042;38.994;2023-05-10T10:56:37;4.70;;;3.03;;
50683;SDS011;36654;45.042;38.994;2023-05-10T10:59:03;4.88;;;2.38;;
50683;SDS011;36654;45.042;38.994;2023-05-10T11:01:35;2.90;;;2.60;;
50683;SDS011;36654;45.042;38.994;2023-05-10T11:06:32;5.45;;;3.40;;
50683;SDS011;36654;45.042;38.994;2023-05-10T11:09:06;5.72;;;4.13;;
50683;SDS011;36654;45.042;38.994;2023-05-10T11:11:34;5.68;;;3.85;;
50683;SDS011;36654;45.042;38.994;2023-05-10T11:14:04;4.82;;;3.25;;
50683;SDS011;36654;45.042;38.994;2023-05-10T11:16:43;5.95;;;2.83;;
50683;SDS011;36654;45.042;38.994;2023-05-10T11:19:10;3.20;;;2.75;;
50683;SDS011;36654;45.042;38.994;2023-05-10T11:21:48;6.65;;;2.50;;
50683;SDS011;36654;45.042;38.994;2023-05-10T11:24:28;2.78;;;2.25;;
50683;SDS011;36654;45.042;38.994;2023-05-10T11:26:54;5.18;;;3.50;;
50683;SDS011;36654;45.042;38.994;2023-05-10T11:29:21;8.68;;;2.83;;
50683;SDS011;36654;45.042;38.994;2023-05-10T11:31:47;9.40;;;3.38;;
50683;SDS011;36654;45.042;38.994;2023-05-10T11:34:28;4.43;;;2.65;;
50683;SDS011;36654;45.042;38.994;2023-05-10T11:37:03;3.35;;;2.22;;
50683;SDS011;36654;45.042;38.994;2023-05-10T11:39:30;3.45;;;1.90;;
50683;SDS011;36654;45.042;38.994;2023-05-10T11:41:56;6.80;;;3.75;;
50683;SDS011;36654;45.042;38.994;2023-05-10T11:44:23;5.32;;;3.05;;
50683;SDS011;36654;45.042;38.994;2023-05-10T11:46:49;7.72;;;2.85;;
50683;SDS011;36654;45.042;38.994;2023-05-10T11:49:15;4.55;;;2.78;;
50683;SDS011;36654;45.042;38.994;2023-05-10T11:51:41;4.32;;;3.10;;
50683;SDS011;36654;45.042;38.994;2023-05-10T11:54:10;6.45;;;2.95;;
50683;SDS011;36654;45.042;38.994;2023-05-10T11:56:39;7.22;;;2.58;;
50683;SDS011;36654;45.042;38.994;2023-05-10T11:59:05;3.83;;;2.60;;
50683;SDS011;36654;45.042;38.994;2023-05-10T12:01:32;3.38;;;2.33;;
50683;SDS011;36654;45.042;38.994;2023-05-10T12:03:58;4.30;;;2.55;;
50683;SDS011;36654;45.042;38.994;2023-05-10T12:06:29;3.20;;;2.80;;
50683;SDS011;36654;45.042;38.994;2023-05-10T12:08:56;8.63;;;2.63;;
50683;SDS011;36654;45.042;38.994;2023-05-10T12:11:26;5.85;;;2.90;;
50683;SDS011;36654;45.042;38.994;2023-05-10T12:13:54;6.50;;;2.78;;
50683;SDS011;36654;45.042;38.994;2023-05-10T12:16:22;9.52;;;3.22;;
50683;SDS011;36654;45.042;38.994;2023-05-10T12:18:49;6.95;;;2.70;;
50683;SDS011;36654;45.042;38.994;2023-05-10T12:21:19;5.53;;;2.70;;
50683;SDS011;36654;45.042;38.994;2023-05-10T12:23:46;4.95;;;2.65;;
50683;SDS011;36654;45.042;38.994;2023-05-10T12:28:40;2.83;;;2.45;;
50683;SDS011;36654;45.042;38.994;2023-05-10T12:31:06;5.32;;;3.08;;
50683;SDS011;36654;45.042;38.994;2023-05-10T12:33:35;4.38;;;2.70;;
50683;SDS011;36654;45.042;38.994;2023-05-10T12:36:08;7.05;;;3.88;;
50683;SDS011;36654;45.042;38.994;2023-05-10T12:38:41;10.82;;;4.38;;
50683;SDS011;36654;45.042;38.994;2023-05-10T12:41:09;4.70;;;2.53;;
50683;SDS011;36654;45.042;38.994;2023-05-10T12:43:36;7.15;;;4.38;;
50683;SDS011;36654;45.042;38.994;2023-05-10T12:46:12;5.72;;;3.88;;
50683;SDS011;36654;45.042;38.994;2023-05-10T12:48:42;2.85;;;2.55;;
50683;SDS011;36654;45.042;38.994;2023-05-10T12:51:08;3.88;;;2.30;;
50683;SDS011;36654;45.042;38.994;2023-05-10T12:53:38;2.92;;;2.40;;
50683;SDS011;36654;45.042;38.994;2023-05-10T12:56:05;2.97;;;2.58;;
50683;SDS011;36654;45.042;38.994;2023-05-10T12:58:31;5.05;;;2.33;;
50683;SDS011;36654;45.042;38.994;2023-05-10T13:00:57;6.28;;;3.00;;
50683;SDS011;36654;45.042;38.994;2023-05-10T13:03:23;2.72;;;2.50;;
50683;SDS011;36654;45.042;38.994;2023-05-10T13:05:49;2.40;;;2.20;;
50683;SDS011;36654;45.042;38.994;2023-05-10T13:08:15;3.60;;;2.83;;
50683;SDS011;36654;45.042;38.994;2023-05-10T13:10:40;6.88;;;2.53;;
50683;SDS011;36654;45.042;38.994;2023-05-10T13:13:06;4.43;;;2.50;;
50683;SDS011;36654;45.042;38.994;2023-05-10T13:15:33;4.63;;;2.90;;
50683;SDS011;36654;45.042;38.994;2023-05-10T13:17:59;2.67;;;2.47;;
50683;SDS011;36654;45.042;38.994;2023-05-10T13:20:25;2.88;;;2.50;;
50683;SDS011;36654;45.042;38.994;2023-05-10T13:22:51;4.47;;;2.65;;
50683;SDS011;36654;45.042;38.994;2023-05-10T13:25:17;3.33;;;2.47;;
50683;SDS011;36654;45.042;38.994;2023-05-10T13:27:42;4.53;;;2.75;;
50683;SDS011;36654;45.042;38.994;2023-05-10T13:30:08;2.70;;;2.50;;
50683;SDS011;36654;45.042;38.994;2023-05-10T13:32:34;3.47;;;2.90;;
50683;SDS011;36654;45.042;38.994;2023-05-10T13:35:00;4.10;;;2.72;;
50683;SDS011;36654;45.042;38.994;2023-05-10T13:37:28;4.68;;;2.78;;
50683;SDS011;36654;45.042;38.994;2023-05-10T13:39:54;3.28;;;2.63;;
50683;SDS011;36654;45.042;38.994;2023-05-10T13:42:21;3.38;;;2.58;;
50683;SDS011;36654;45.042;38.994;2023-05-10T13:44:48;3.75;;;2.17;;
50683;SDS011;36654;45.042;38.994;2023-05-10T13:47:14;3.28;;;2.97;;
50683;SDS011;36654;45.042;38.994;2023-05-10T13:49:40;2.42;;;2.20;;
50683;SDS011;36654;45.042;38.994;2023-05-10T13:52:05;11.02;;;5.22;;
50683;SDS011;36654;45.042;38.994;2023-05-10T13:54:35;3.47;;;3.17;;
50683;SDS011;36654;45.042;38.994;2023-05-10T13:57:02;7.30;;;3.40;;
50683;SDS011;36654;45.042;38.994;2023-05-10T13:59:28;5.65;;;3.20;;
50683;SDS011;36654;45.042;38.994;2023-05-10T14:04:22;2.75;;;2.55;;
50683;SDS011;36654;45.042;38.994;2023-05-10T14:06:47;3.30;;;3.00;;
50683;SDS011;36654;45.042;38.994;2023-05-10T14:09:13;3.85;;;2.65;;
50683;SDS011;36654;45.042;38.994;2023-05-10T14:11:39;7.35;;;2.97;;
50683;SDS011;36654;45.042;38.994;2023-05-10T14:14:08;5.70;;;2.83;;
50683;SDS011;36654;45.042;38.994;2023-05-10T14:16:34;4.40;;;2.53;;
50683;SDS011;36654;45.042;38.994;2023-05-10T14:19:00;3.50;;;3.05;;
50683;SDS011;36654;45.042;38.994;2023-05-10T14:21:26;6.68;;;3.53;;
50683;SDS011;36654;45.042;38.994;2023-05-10T14:23:54;3.40;;;3.10;;
50683;SDS011;36654;45.042;38.994;2023-05-10T14:26:20;2.67;;;2.38;;
50683;SDS011;36654;45.042;38.994;2023-05-10T14:28:46;2.92;;;2.38;;
50683;SDS011;36654;45.042;38.994;2023-05-10T14:31:12;3.50;;;2.80;;
50683;SDS011;36654;45.042;38.994;2023-05-10T14:33:39;7.43;;;3.05;;
50683;SDS011;36654;45.042;38.994;2023-05-10T14:36:05;5.93;;;3.15;;
50683;SDS011;36654;45.042;38.994;2023-05-10T14:38:31;4.22;;;2.95;;
50683;SDS011;36654;45.042;38.994;2023-05-10T14:40:57;5.75;;;3.10;;
50683;SDS011;36654;45.042;38.994;2023-05-10T14:43:22;4.47;;;2.92;;
50683;SDS011;36654;45.042;38.994;2023-05-10T14:45:48;4.57;;;2.35;;
50683;SDS011;36654;45.042;38.994;2023-05-10T14:48:14;5.53;;;3.20;;
50683;SDS011;36654;45.042;38.994;2023-05-10T14:50:42;3.65;;;3.35;;
50683;SDS011;36654;45.042;38.994;2023-05-10T14:53:08;7.28;;;2.80;;
50683;SDS011;36654;45.042;38.994;2023-05-10T14:55:34;8.07;;;3.50;;
50683;SDS011;36654;45.042;38.994;2023-05-10T14:58:00;5.78;;;3.35;;
50683;SDS011;36654;45.042;38.994;2023-05-10T15:00:27;3.00;;;2.42;;
50683;SDS011;36654;45.042;38.994;2023-05-10T15:02:53;7.72;;;2.80;;
50683;SDS011;36654;45.042;38.994;2023-05-10T15:05:19;3.53;;;3.10;;
50683;SDS011;36654;45.042;38.994;2023-05-10T15:07:45;3.00;;;2.60;;
50683;SDS011;36654;45.042;38.994;2023-05-10T15:10:10;5.78;;;2.83;;